createdAt,value
2023-01-07T00:01:34.565Z,3.77
2023-01-07T00:04:02.501Z,4.33
2023-01-07T00:06:30.964Z,4.97
2023-01-07T00:08:58.885Z,5.20
2023-01-07T00:11:29.346Z,4.73
2023-01-07T00:13:57.704Z,4.80
2023-01-07T00:16:26.419Z,3.37
2023-01-07T00:18:54.640Z,2.70
2023-01-07T00:21:23.142Z,3.00
2023-01-07T00:23:50.458Z,3.83
2023-01-07T00:26:21.013Z,3.13
2023-01-07T00:28:49.429Z,3.07
2023-01-07T00:31:20.686Z,3.60
2023-01-07T00:33:54.539Z,3.63
2023-01-07T00:36:22.753Z,3.57
2023-01-07T00:38:55.290Z,3.70
2023-01-07T00:41:22.477Z,3.70
2023-01-07T00:43:50.630Z,3.60
2023-01-07T00:46:18.376Z,3.33
2023-01-07T00:48:45.576Z,3.40
2023-01-07T00:51:16.550Z,3.33
2023-01-07T00:53:44.332Z,3.20
2023-01-07T00:56:12.138Z,3.50
2023-01-07T00:58:44.595Z,3.27
2023-01-07T01:01:12.487Z,3.10
2023-01-07T01:03:40.325Z,2.40
2023-01-07T01:06:09.343Z,2.90
2023-01-07T01:08:36.839Z,2.93
2023-01-07T01:11:08.325Z,2.83
2023-01-07T01:13:35.747Z,3.10
2023-01-07T01:16:03.003Z,2.87
2023-01-07T01:18:30.555Z,3.03
2023-01-07T01:20:57.671Z,2.90
2023-01-07T01:23:25.071Z,3.23
2023-01-07T01:25:52.265Z,3.90
2023-01-07T01:28:19.353Z,3.53
2023-01-07T01:30:46.501Z,3.50
2023-01-07T01:33:13.639Z,3.60
2023-01-07T01:35:41.900Z,3.37
2023-01-07T01:38:09.111Z,3.13
2023-01-07T01:40:36.276Z,3.10
2023-01-07T01:43:03.419Z,2.77
2023-01-07T01:45:30.730Z,2.90
2023-01-07T01:48:01.687Z,3.00
2023-01-07T01:50:43.696Z,2.87
2023-01-07T01:53:13.003Z,3.20
2023-01-07T01:56:07.298Z,3.17
2023-01-07T01:58:39.663Z,3.30
2023-01-07T02:01:06.921Z,3.77
2023-01-07T02:03:35.975Z,3.60
2023-01-07T02:06:03.512Z,4.03
2023-01-07T02:08:31.805Z,3.93
2023-01-07T02:11:19.416Z,3.33
2023-01-07T02:14:12.690Z,3.10
2023-01-07T02:16:52.226Z,3.07
2023-01-07T02:19:38.558Z,3.27
2023-01-07T02:22:05.848Z,3.67
2023-01-07T02:24:42.117Z,4.23
2023-01-07T02:27:11.565Z,3.60
2023-01-07T02:29:58.340Z,3.80
2023-01-07T02:32:25.472Z,3.60
2023-01-07T02:35:11.284Z,4.27
2023-01-07T02:37:44.888Z,4.60
2023-01-07T02:40:16.316Z,5.03
2023-01-07T02:42:50.246Z,5.20
2023-01-07T02:45:17.615Z,4.50
2023-01-07T02:47:50.158Z,5.00
2023-01-07T02:50:17.327Z,4.97
2023-01-07T02:52:44.551Z,4.33
2023-01-07T02:55:20.428Z,4.10
2023-01-07T02:58:00.046Z,3.90
2023-01-07T03:00:45.439Z,4.10
2023-01-07T03:03:22.021Z,4.53
2023-01-07T03:05:58.398Z,4.77
2023-01-07T03:08:40.749Z,4.33
2023-01-07T03:11:10.051Z,5.57
2023-01-07T03:13:46.813Z,5.60
2023-01-07T03:16:17.084Z,3.60
2023-01-07T03:18:47.832Z,3.50
2023-01-07T03:21:16.536Z,3.43
2023-01-07T03:23:46.628Z,3.47
2023-01-07T03:26:15.904Z,4.07
2023-01-07T03:28:43.241Z,4.23
2023-01-07T03:31:12.495Z,3.93
2023-01-07T03:33:52.941Z,4.70
2023-01-07T03:36:21.777Z,5.27
2023-01-07T03:38:51.468Z,4.80
2023-01-07T03:41:37.516Z,4.37
2023-01-07T03:44:04.683Z,3.80
2023-01-07T03:46:32.614Z,3.90
2023-01-07T03:49:01.021Z,3.77
2023-01-07T03:51:28.307Z,3.87
2023-01-07T03:53:55.449Z,3.53
2023-01-07T03:56:22.572Z,3.70
2023-01-07T03:58:50.562Z,4.00
2023-01-07T04:01:17.884Z,3.77
2023-01-07T04:03:45.047Z,3.53
2023-01-07T04:06:12.180Z,3.53
2023-01-07T04:08:39.329Z,3.40
2023-01-07T04:11:06.556Z,3.50
2023-01-07T04:13:33.687Z,4.23
2023-01-07T04:16:00.839Z,3.70
2023-01-07T04:18:28.073Z,3.70
2023-01-07T04:20:55.234Z,3.83
2023-01-07T04:23:22.364Z,4.10
2023-01-07T04:25:49.892Z,4.10
2023-01-07T04:28:17.107Z,4.37
2023-01-07T04:30:44.460Z,5.00
2023-01-07T04:33:11.664Z,4.40
2023-01-07T04:35:40.191Z,4.17
2023-01-07T04:38:07.579Z,3.73
2023-01-07T04:40:34.990Z,3.83
2023-01-07T04:43:02.974Z,3.73
2023-01-07T04:45:31.185Z,3.63
2023-01-07T04:47:58.779Z,4.03
2023-01-07T04:50:26.095Z,3.70
2023-01-07T04:52:53.441Z,4.00
2023-01-07T04:55:20.749Z,4.50
2023-01-07T04:57:48.093Z,4.23
2023-01-07T05:00:15.739Z,5.63
2023-01-07T05:02:42.924Z,6.10
2023-01-07T05:05:10.436Z,6.20
2023-01-07T05:07:37.565Z,6.83
2023-01-07T05:10:04.992Z,7.00
2023-01-07T05:12:38.244Z,7.50
2023-01-07T05:15:09.000Z,6.40
2023-01-07T05:17:36.212Z,6.83
2023-01-07T05:20:03.383Z,8.80
2023-01-07T05:22:31.531Z,7.40
2023-01-07T05:24:58.682Z,6.73
2023-01-07T05:27:25.850Z,7.43
2023-01-07T05:29:52.970Z,7.47
2023-01-07T05:32:20.142Z,8.17
2023-01-07T05:34:47.275Z,8.30
2023-01-07T05:37:14.426Z,9.07
2023-01-07T05:39:41.577Z,9.20
2023-01-07T05:42:08.730Z,9.50
2023-01-07T05:44:35.920Z,10.30
2023-01-07T05:47:03.073Z,10.20
2023-01-07T05:49:30.196Z,8.80
2023-01-07T05:51:57.359Z,9.43
2023-01-07T05:54:24.497Z,8.60
2023-01-07T05:56:51.648Z,7.63
2023-01-07T05:59:18.829Z,8.57
2023-01-07T06:01:45.991Z,8.37
2023-01-07T06:04:13.264Z,7.27
2023-01-07T06:06:40.655Z,7.50
2023-01-07T06:09:07.861Z,5.87
2023-01-07T06:11:34.975Z,7.17
2023-01-07T06:14:02.120Z,8.43
2023-01-07T06:16:29.437Z,8.93
2023-01-07T06:18:56.605Z,10.07
2023-01-07T06:21:23.750Z,10.73
2023-01-07T06:23:50.981Z,11.03
2023-01-07T06:26:18.107Z,10.37
2023-01-07T06:28:48.064Z,10.73
2023-01-07T06:31:15.254Z,9.93
2023-01-07T06:33:42.543Z,10.30
2023-01-07T06:36:09.872Z,12.10
2023-01-07T06:38:37.083Z,11.53
2023-01-07T06:41:04.371Z,11.60
2023-01-07T06:43:31.474Z,12.50
2023-01-07T06:45:59.092Z,10.20
2023-01-07T06:48:26.829Z,11.27
2023-01-07T06:50:53.956Z,10.70
2023-01-07T06:53:21.150Z,10.77
2023-01-07T06:55:49.512Z,11.77
2023-01-07T06:58:17.105Z,11.07
2023-01-07T07:00:44.737Z,11.40
2023-01-07T07:03:12.094Z,10.47
2023-01-07T07:05:39.656Z,11.93
2023-01-07T07:08:06.868Z,11.00
2023-01-07T07:10:34.178Z,11.23
2023-01-07T07:13:01.542Z,11.27
2023-01-07T07:15:28.913Z,12.07
2023-01-07T07:17:56.238Z,11.10
2023-01-07T07:20:23.355Z,11.63
2023-01-07T07:22:50.571Z,11.10
2023-01-07T07:25:17.894Z,11.37
2023-01-07T07:27:46.398Z,11.20
2023-01-07T07:30:16.325Z,10.87
2023-01-07T07:32:43.956Z,9.80
2023-01-07T07:35:11.938Z,10.27
2023-01-07T07:37:39.323Z,11.50
2023-01-07T07:40:09.117Z,9.97
2023-01-07T07:43:10.284Z,10.40
2023-01-07T07:45:23.895Z,11.07
2023-01-07T07:47:51.082Z,10.70
2023-01-07T07:50:18.453Z,9.53
2023-01-07T07:52:47.999Z,10.17
2023-01-07T07:55:20.307Z,9.53
2023-01-07T07:57:56.851Z,11.30
2023-01-07T08:00:24.290Z,9.90
2023-01-07T08:02:51.881Z,9.97
2023-01-07T08:05:19.163Z,9.63
2023-01-07T08:07:46.602Z,9.80
2023-01-07T08:10:14.989Z,10.20
2023-01-07T08:12:42.129Z,11.43
2023-01-07T08:15:09.649Z,10.53
2023-01-07T08:17:37.057Z,10.57
2023-01-07T08:20:08.024Z,11.40
2023-01-07T08:22:35.521Z,10.53
2023-01-07T08:25:03.048Z,9.43
2023-01-07T08:27:30.293Z,9.17
2023-01-07T08:29:57.549Z,8.97
2023-01-07T08:32:27.267Z,8.23
2023-01-07T08:34:54.382Z,9.17
2023-01-07T08:37:21.637Z,9.83
2023-01-07T08:39:48.825Z,8.47
2023-01-07T08:42:15.948Z,8.03
2023-01-07T08:44:43.986Z,8.43
2023-01-07T08:47:11.373Z,8.40
2023-01-07T08:49:38.635Z,7.97
2023-01-07T08:52:05.920Z,8.10
2023-01-07T08:54:33.104Z,9.20
2023-01-07T08:57:00.505Z,9.00
2023-01-07T08:59:27.722Z,9.97
2023-01-07T09:01:55.076Z,12.40
2023-01-07T09:04:22.669Z,7.80
2023-01-07T09:06:49.851Z,10.00
2023-01-07T09:09:17.891Z,8.33
2023-01-07T09:11:45.138Z,7.97
2023-01-07T09:14:12.309Z,8.13
2023-01-07T09:16:39.598Z,8.77
2023-01-07T09:19:06.804Z,7.73
2023-01-07T09:21:34.039Z,8.93
2023-01-07T09:24:01.297Z,8.07
2023-01-07T09:26:29.792Z,10.00
2023-01-07T09:28:57.084Z,7.43
2023-01-07T09:31:24.333Z,7.30
2023-01-07T09:33:51.599Z,8.40
2023-01-07T09:36:18.858Z,7.30
2023-01-07T09:38:46.071Z,7.43
2023-01-07T09:41:20.686Z,7.03
2023-01-07T09:43:59.886Z,7.13
2023-01-07T09:46:28.660Z,7.57
2023-01-07T09:48:58.922Z,8.27
2023-01-07T09:51:31.142Z,7.60
2023-01-07T09:54:00.267Z,8.10
2023-01-07T09:56:28.986Z,7.17
2023-01-07T09:58:56.979Z,8.07
2023-01-07T10:01:30.644Z,8.37
2023-01-07T10:04:07.075Z,8.20
2023-01-07T10:06:43.036Z,8.00
2023-01-07T10:09:30.027Z,8.37
2023-01-07T10:12:00.706Z,10.03
2023-01-07T10:14:27.795Z,8.70
2023-01-07T10:17:13.443Z,9.40
2023-01-07T10:19:48.801Z,10.13
2023-01-07T10:22:34.561Z,10.70
2023-01-07T10:25:04.471Z,8.63
2023-01-07T10:27:42.777Z,9.20
2023-01-07T10:30:16.113Z,9.57
2023-01-07T10:32:43.558Z,9.20
2023-01-07T10:35:17.482Z,8.53
2023-01-07T10:37:45.291Z,9.43
2023-01-07T10:40:18.657Z,9.30
2023-01-07T10:42:58.636Z,9.60
2023-01-07T10:45:44.412Z,10.17
2023-01-07T10:48:14.560Z,10.47
2023-01-07T10:50:41.721Z,11.17
2023-01-07T10:53:17.926Z,11.20
2023-01-07T10:55:55.217Z,11.30
2023-01-07T10:58:22.935Z,12.70
2023-01-07T11:00:50.371Z,12.33
2023-01-07T11:03:22.455Z,11.13
2023-01-07T11:05:53.480Z,10.83
2023-01-07T11:08:30.340Z,12.00
2023-01-07T11:10:58.838Z,12.47
2023-01-07T11:13:36.955Z,11.37
2023-01-07T11:16:10.017Z,10.60
2023-01-07T11:18:41.826Z,9.30
2023-01-07T11:21:09.110Z,10.40
2023-01-07T11:23:56.274Z,10.47
2023-01-07T11:26:26.353Z,12.33
2023-01-07T11:28:54.949Z,11.20
2023-01-07T11:31:24.027Z,10.30
2023-01-07T11:34:03.903Z,9.83
2023-01-07T11:36:43.534Z,10.23
2023-01-07T11:39:19.515Z,9.47
2023-01-07T11:42:32.003Z,10.07
2023-01-07T11:45:17.868Z,9.90
2023-01-07T11:47:49.890Z,10.47
2023-01-07T11:50:43.844Z,8.87
2023-01-07T11:53:14.071Z,8.73
2023-01-07T11:55:42.581Z,8.00
2023-01-07T11:58:29.620Z,9.10
2023-01-07T12:01:14.967Z,8.10
2023-01-07T12:03:44.039Z,8.33
2023-01-07T12:06:14.301Z,8.37
2023-01-07T12:08:42.724Z,7.80
2023-01-07T12:11:12.207Z,7.93
2023-01-07T12:13:41.517Z,7.90
2023-01-07T12:16:09.432Z,9.07
2023-01-07T12:18:39.806Z,9.57
2023-01-07T12:21:10.257Z,8.57
2023-01-07T12:24:07.002Z,7.60
2023-01-07T12:26:54.369Z,6.70
2023-01-07T12:29:25.361Z,6.50
2023-01-07T12:32:10.362Z,8.50
2023-01-07T12:34:56.789Z,6.87
2023-01-07T12:37:23.964Z,6.50
2023-01-07T12:39:54.429Z,5.93
2023-01-07T12:42:29.152Z,6.40
2023-01-07T12:45:02.188Z,5.87
2023-01-07T12:47:34.866Z,5.60
2023-01-07T12:50:14.088Z,5.63
2023-01-07T12:52:43.892Z,5.93
2023-01-07T12:55:17.460Z,5.77
2023-01-07T12:57:46.504Z,5.90
2023-01-07T13:00:19.733Z,5.97
2023-01-07T13:02:51.280Z,6.47
2023-01-07T13:05:22.496Z,6.23
2023-01-07T13:08:06.672Z,5.97
2023-01-07T13:10:36.927Z,6.83
2023-01-07T13:13:07.868Z,6.97
2023-01-07T13:15:38.037Z,6.90
2023-01-07T13:18:25.529Z,6.90
2023-01-07T13:21:08.277Z,6.27
2023-01-07T13:23:46.147Z,6.73
2023-01-07T13:26:22.504Z,6.63
2023-01-07T13:28:56.998Z,6.70
2023-01-07T13:31:43.071Z,7.30
2023-01-07T13:34:13.196Z,6.80
2023-01-07T13:36:40.453Z,6.77
2023-01-07T13:39:26.645Z,6.67
2023-01-07T13:42:08.183Z,6.50
2023-01-07T13:44:47.583Z,6.57
2023-01-07T13:47:16.829Z,6.60
2023-01-07T13:49:56.279Z,6.93
2023-01-07T13:52:24.753Z,6.73
2023-01-07T13:54:51.877Z,6.33
2023-01-07T13:57:38.917Z,6.17
2023-01-07T14:00:07.575Z,5.90
2023-01-07T14:02:53.778Z,6.00
2023-01-07T14:05:25.355Z,5.53
2023-01-07T14:07:53.891Z,5.90
2023-01-07T14:10:33.114Z,6.07
2023-01-07T14:13:15.254Z,6.20
2023-01-07T14:15:49.420Z,6.13
2023-01-07T14:18:35.527Z,5.73
2023-01-07T14:21:18.831Z,5.83
2023-01-07T14:23:54.970Z,6.07
2023-01-07T14:26:28.025Z,6.97
2023-01-07T14:28:58.002Z,6.30
2023-01-07T14:31:26.717Z,6.53
2023-01-07T14:33:58.171Z,6.07
2023-01-07T14:36:45.269Z,6.17
2023-01-07T14:39:30.715Z,6.50
2023-01-07T14:42:16.608Z,7.10
2023-01-07T14:44:43.898Z,7.67
2023-01-07T14:47:14.644Z,7.07
2023-01-07T14:49:53.839Z,6.63
2023-01-07T14:52:27.024Z,7.03
2023-01-07T14:55:00.279Z,6.70
2023-01-07T14:57:46.532Z,8.00
2023-01-07T15:00:32.290Z,6.83
2023-01-07T15:02:59.480Z,7.10
2023-01-07T15:05:29.653Z,7.53
2023-01-07T15:08:19.019Z,7.60
2023-01-07T15:11:06.979Z,6.80
2023-01-07T15:13:56.125Z,7.60
2023-01-07T15:16:24.273Z,7.47
2023-01-07T15:18:52.497Z,12.13
2023-01-07T15:21:25.828Z,9.87
2023-01-07T15:24:09.114Z,8.60
2023-01-07T15:26:39.371Z,9.03
2023-01-07T15:29:25.479Z,10.50
2023-01-07T15:32:00.487Z,8.77
2023-01-07T15:34:30.240Z,8.43
2023-01-07T15:36:57.816Z,9.73
2023-01-07T15:39:27.657Z,10.73
2023-01-07T15:41:55.312Z,9.97
2023-01-07T15:44:40.361Z,9.53
2023-01-07T15:47:27.939Z,9.17
2023-01-07T15:49:55.121Z,8.80
2023-01-07T15:52:24.106Z,9.23
2023-01-07T15:54:51.358Z,8.63
2023-01-07T15:57:23.938Z,9.00
2023-01-07T15:59:52.379Z,9.07
2023-01-07T16:02:27.838Z,9.53
2023-01-07T16:04:56.636Z,9.03
2023-01-07T16:07:26.885Z,9.57
2023-01-07T16:09:54.746Z,9.27
2023-01-07T16:12:27.959Z,9.90
2023-01-07T16:14:55.121Z,10.03
2023-01-07T16:17:22.506Z,9.93
2023-01-07T16:19:49.774Z,9.40
2023-01-07T16:22:19.517Z,9.50
2023-01-07T16:24:51.254Z,9.70
2023-01-07T16:27:21.793Z,10.50
2023-01-07T16:29:53.591Z,10.50
2023-01-07T16:32:22.154Z,10.43
2023-01-07T16:35:01.444Z,9.20
2023-01-07T16:37:29.212Z,10.40
2023-01-07T16:39:56.597Z,10.27
2023-01-07T16:42:23.975Z,10.20
2023-01-07T16:44:54.166Z,10.50
2023-01-07T16:47:25.636Z,10.43
2023-01-07T16:49:57.069Z,10.90
2023-01-07T16:52:29.937Z,12.93
2023-01-07T16:54:57.249Z,10.47
2023-01-07T16:57:33.700Z,10.40
2023-01-07T17:00:02.156Z,11.00
2023-01-07T17:02:40.713Z,12.17
2023-01-07T17:05:24.735Z,11.87
2023-01-07T17:08:00.109Z,11.73
2023-01-07T17:10:29.239Z,12.07
2023-01-07T17:13:04.316Z,12.17
2023-01-07T17:15:32.039Z,12.17
2023-01-07T17:18:11.566Z,13.10
2023-01-07T17:20:46.247Z,12.13
2023-01-07T17:23:26.128Z,12.37
2023-01-07T17:25:58.322Z,13.00
2023-01-07T17:28:26.738Z,13.27
2023-01-07T17:30:54.250Z,14.00
2023-01-07T17:33:22.862Z,13.67
2023-01-07T17:35:51.825Z,12.90
2023-01-07T17:38:19.157Z,13.33
2023-01-07T17:40:46.555Z,13.17
2023-01-07T17:43:33.507Z,13.70
2023-01-07T17:46:04.469Z,14.10
2023-01-07T17:48:32.028Z,12.50
2023-01-07T17:51:00.737Z,13.70
2023-01-07T17:53:29.716Z,13.93
2023-01-07T17:55:57.254Z,14.27
2023-01-07T17:58:29.154Z,15.77
2023-01-07T18:00:56.963Z,17.07
2023-01-07T18:03:24.427Z,18.10
2023-01-07T18:05:51.630Z,17.97
2023-01-07T18:08:20.181Z,17.47
2023-01-07T18:11:06.293Z,15.90
2023-01-07T18:13:33.869Z,16.97
2023-01-07T18:16:01.985Z,17.00
2023-01-07T18:18:31.304Z,16.20
2023-01-07T18:20:58.859Z,15.87
2023-01-07T18:23:25.998Z,16.00
2023-01-07T18:25:53.395Z,15.63
2023-01-07T18:28:20.639Z,15.70
2023-01-07T18:30:48.209Z,15.10
2023-01-07T18:33:15.599Z,16.63
2023-01-07T18:35:42.746Z,15.83
2023-01-07T18:38:13.655Z,16.30
2023-01-07T18:40:40.949Z,16.03
2023-01-07T18:43:08.362Z,16.37
2023-01-07T18:45:35.840Z,16.90
2023-01-07T18:48:03.635Z,17.00
2023-01-07T18:50:31.032Z,18.40
2023-01-07T18:52:58.278Z,23.13
2023-01-07T18:55:27.462Z,19.80
2023-01-07T18:57:54.606Z,24.23
2023-01-07T19:00:22.053Z,22.57
2023-01-07T19:02:49.354Z,21.83
2023-01-07T19:05:16.870Z,21.60
2023-01-07T19:07:44.003Z,19.87
2023-01-07T19:10:11.364Z,17.67
2023-01-07T19:12:38.626Z,17.53
2023-01-07T19:15:06.069Z,18.30
2023-01-07T19:17:33.819Z,19.30
2023-01-07T19:20:01.005Z,23.27
2023-01-07T19:22:28.507Z,18.57
2023-01-07T19:24:56.845Z,18.83
2023-01-07T19:27:24.670Z,20.53
2023-01-07T19:29:54.104Z,25.23
2023-01-07T19:32:21.290Z,25.73
2023-01-07T19:34:49.669Z,20.90
2023-01-07T19:37:17.234Z,18.67
2023-01-07T19:39:44.437Z,19.53
2023-01-07T19:42:12.888Z,18.37
2023-01-07T19:44:41.617Z,18.97
2023-01-07T19:47:09.975Z,17.10
2023-01-07T19:49:37.277Z,19.37
2023-01-07T19:52:04.477Z,20.20
2023-01-07T19:54:31.586Z,19.60
2023-01-07T19:56:58.806Z,21.43
2023-01-07T19:59:26.306Z,18.77
2023-01-07T20:01:53.833Z,20.67
2023-01-07T20:04:21.330Z,23.23
2023-01-07T20:06:50.439Z,18.87
2023-01-07T20:09:18.632Z,19.13
2023-01-07T20:11:45.960Z,20.90
2023-01-07T20:14:14.104Z,24.17
2023-01-07T20:16:42.349Z,23.17
2023-01-07T20:19:12.864Z,23.00
2023-01-07T20:21:40.120Z,18.50
2023-01-07T20:24:07.892Z,17.83
2023-01-07T20:26:37.902Z,16.77
2023-01-07T20:29:05.227Z,18.37
2023-01-07T20:31:32.760Z,16.50
2023-01-07T20:34:00.576Z,16.43
2023-01-07T20:36:31.469Z,16.83
2023-01-07T20:39:05.191Z,14.80
2023-01-07T20:41:38.060Z,16.30
2023-01-07T20:44:06.708Z,15.23
2023-01-07T20:46:34.858Z,16.57
2023-01-07T20:49:02.624Z,16.67
2023-01-07T20:51:29.819Z,18.10
2023-01-07T20:53:56.932Z,16.90
2023-01-07T20:56:24.624Z,18.40
2023-01-07T20:58:52.107Z,16.53
2023-01-07T21:01:20.675Z,15.80
2023-01-07T21:03:48.040Z,14.77
2023-01-07T21:06:17.912Z,15.60
2023-01-07T21:08:46.617Z,16.67
2023-01-07T21:11:14.634Z,16.37
2023-01-07T21:13:42.650Z,14.73
2023-01-07T21:16:10.243Z,13.83
2023-01-07T21:18:37.586Z,14.50
2023-01-07T21:21:09.651Z,15.30
2023-01-07T21:23:36.901Z,15.40
2023-01-07T21:26:04.169Z,15.63
2023-01-07T21:28:31.646Z,15.23
2023-01-07T21:31:02.655Z,15.53
2023-01-07T21:33:30.234Z,14.83
2023-01-07T21:35:57.486Z,14.23
2023-01-07T21:38:24.703Z,13.73
2023-01-07T21:40:51.931Z,14.80
2023-01-07T21:43:19.118Z,15.00
2023-01-07T21:45:46.273Z,14.90
2023-01-07T21:48:13.432Z,14.27
2023-01-07T21:50:40.551Z,15.00
2023-01-07T21:53:07.691Z,14.87
2023-01-07T21:55:38.453Z,15.43
2023-01-07T21:58:05.795Z,15.70
2023-01-07T22:00:33.424Z,16.03
2023-01-07T22:03:00.563Z,15.93
2023-01-07T22:05:27.809Z,15.53
2023-01-07T22:07:54.977Z,14.93
2023-01-07T22:10:22.679Z,15.70
2023-01-07T22:12:49.890Z,15.47
2023-01-07T22:15:17.185Z,15.47
2023-01-07T22:17:44.333Z,13.87
2023-01-07T22:20:11.936Z,14.77
2023-01-07T22:22:39.415Z,15.27
2023-01-07T22:25:06.936Z,15.67
2023-01-07T22:27:34.112Z,15.27
2023-01-07T22:30:01.397Z,15.10
2023-01-07T22:32:29.071Z,15.17
2023-01-07T22:34:56.173Z,15.13
2023-01-07T22:37:26.381Z,15.50
2023-01-07T22:39:57.795Z,15.07
2023-01-07T22:42:28.792Z,15.30
2023-01-07T22:45:17.921Z,15.33
2023-01-07T22:47:47.063Z,16.10
2023-01-07T22:50:14.820Z,16.00
2023-01-07T22:52:42.774Z,16.07
2023-01-07T22:55:10.144Z,16.80
2023-01-07T22:57:37.661Z,17.07
2023-01-07T23:00:05.851Z,16.77
2023-01-07T23:02:33.134Z,16.87
2023-01-07T23:05:01.138Z,16.13
2023-01-07T23:07:28.865Z,15.27
2023-01-07T23:09:56.075Z,15.57
2023-01-07T23:12:23.542Z,14.77
2023-01-07T23:14:50.722Z,15.27
2023-01-07T23:17:17.855Z,15.63
2023-01-07T23:19:45.065Z,15.57
2023-01-07T23:22:12.329Z,15.20
2023-01-07T23:24:40.041Z,14.67
2023-01-07T23:27:07.530Z,14.37
2023-01-07T23:29:35.893Z,18.07
2023-01-07T23:32:03.578Z,19.37
2023-01-07T23:34:31.128Z,17.00
2023-01-07T23:36:58.318Z,15.33
2023-01-07T23:39:25.576Z,16.60
2023-01-07T23:41:52.824Z,16.00
2023-01-07T23:44:20.054Z,15.30
2023-01-07T23:46:47.815Z,15.47
2023-01-07T23:49:15.033Z,14.13
2023-01-07T23:51:42.456Z,14.60
2023-01-07T23:54:10.027Z,15.23
2023-01-07T23:56:37.243Z,15.30
2023-01-07T23:59:04.815Z,16.10
